sensor_id;sensor_type;location;lat;lon;timestamp;pressure;altitude;pressure_sealevel;temperature
15575;BMP180;7888;46.748;8.102;2023-12-28T08:37:05;94494.00;;;7.00
15575;BMP180;7888;46.748;8.102;2023-12-28T08:39:30;94486.00;;;7.10
15575;BMP180;7888;46.748;8.102;2023-12-28T08:41:56;94487.00;;;7.10
15575;BMP180;7888;46.748;8.102;2023-12-28T08:44:22;94488.00;;;7.20
15575;BMP180;7888;46.748;8.102;2023-12-28T08:46:48;94481.00;;;7.20
15575;BMP180;7888;46.748;8.102;2023-12-28T08:49:14;94482.00;;;7.30
15575;BMP180;7888;46.748;8.102;2023-12-28T08:51:41;94482.00;;;7.40
15575;BMP180;7888;46.748;8.102;2023-12-28T08:54:08;94486.00;;;7.40
15575;BMP180;7888;46.748;8.102;2023-12-28T08:56:34;94479.00;;;7.50
15575;BMP180;7888;46.748;8.102;2023-12-28T08:59:01;94460.00;;;7.50
15575;BMP180;7888;46.748;8.102;2023-12-28T09:01:27;94476.00;;;7.60
15575;BMP180;7888;46.748;8.102;2023-12-28T09:03:55;94473.00;;;7.60
15575;BMP180;7888;46.748;8.102;2023-12-28T09:06:22;94419.00;;;7.60
15575;BMP180;7888;46.748;8.102;2023-12-28T09:08:50;94458.00;;;7.70
15575;BMP180;7888;46.748;8.102;2023-12-28T09:11:17;94468.00;;;7.70
15575;BMP180;7888;46.748;8.102;2023-12-28T09:13:43;94456.00;;;7.80
15575;BMP180;7888;46.748;8.102;2023-12-28T09:16:14;94450.00;;;7.80
15575;BMP180;7888;46.748;8.102;2023-12-28T09:18:41;94469.00;;;7.90
15575;BMP180;7888;46.748;8.102;2023-12-28T09:21:08;94463.00;;;7.90
15575;BMP180;7888;46.748;8.102;2023-12-28T09:23:35;94460.00;;;8.00
15575;BMP180;7888;46.748;8.102;2023-12-28T09:26:03;94447.00;;;8.00
15575;BMP180;7888;46.748;8.102;2023-12-28T09:28:30;94446.00;;;8.10
15575;BMP180;7888;46.748;8.102;2023-12-28T09:30:56;94458.00;;;8.10
15575;BMP180;7888;46.748;8.102;2023-12-28T09:33:22;94459.00;;;8.20
15575;BMP180;7888;46.748;8.102;2023-12-28T09:35:48;94453.00;;;8.20
15575;BMP180;7888;46.748;8.102;2023-12-28T09:38:14;94451.00;;;8.30
15575;BMP180;7888;46.748;8.102;2023-12-28T09:40:44;94465.00;;;8.40
15575;BMP180;7888;46.748;8.102;2023-12-28T09:43:18;94459.00;;;8.40
15575;BMP180;7888;46.748;8.102;2023-12-28T09:45:48;94457.00;;;8.50
15575;BMP180;7888;46.748;8.102;2023-12-28T09:48:20;94455.00;;;8.50
15575;BMP180;7888;46.748;8.102;2023-12-28T09:50:53;94451.00;;;8.60
15575;BMP180;7888;46.748;8.102;2023-12-28T09:53:23;94450.00;;;8.70
15575;BMP180;7888;46.748;8.102;2023-12-28T09:55:50;94448.00;;;8.80
15575;BMP180;7888;46.748;8.102;2023-12-28T09:58:18;94443.00;;;8.80
15575;BMP180;7888;46.748;8.102;2023-12-28T10:00:47;94448.00;;;8.90
15575;BMP180;7888;46.748;8.102;2023-12-28T10:03:14;94444.00;;;9.00
15575;BMP180;7888;46.748;8.102;2023-12-28T10:05:41;94438.00;;;9.10
15575;BMP180;7888;46.748;8.102;2023-12-28T10:08:08;94442.00;;;9.20
15575;BMP180;7888;46.748;8.102;2023-12-28T10:10:34;94443.00;;;9.20
15575;BMP180;7888;46.748;8.102;2023-12-28T10:13:00;94443.00;;;9.30
15575;BMP180;7888;46.748;8.102;2023-12-28T10:15:27;94441.00;;;9.30
15575;BMP180;7888;46.748;8.102;2023-12-28T10:17:53;94439.00;;;9.40
15575;BMP180;7888;46.748;8.102;2023-12-28T10:20:19;94438.00;;;9.40
15575;BMP180;7888;46.748;8.102;2023-12-28T10:22:45;94427.00;;;9.50
15575;BMP180;7888;46.748;8.102;2023-12-28T10:25:12;94432.00;;;9.50
15575;BMP180;7888;46.748;8.102;2023-12-28T10:27:39;94426.00;;;9.60
15575;BMP180;7888;46.748;8.102;2023-12-28T10:30:08;94426.00;;;9.50
15575;BMP180;7888;46.748;8.102;2023-12-28T10:32:36;94420.00;;;9.70
15575;BMP180;7888;46.748;8.102;2023-12-28T10:35:02;94411.00;;;9.70
15575;BMP180;7888;46.748;8.102;2023-12-28T10:37:32;94398.00;;;9.80
15575;BMP180;7888;46.748;8.102;2023-12-28T10:40:05;94401.00;;;9.80
15575;BMP180;7888;46.748;8.102;2023-12-28T10:45:19;94385.00;;;9.80
15575;BMP180;7888;46.748;8.102;2023-12-28T10:48:09;94404.00;;;9.80
15575;BMP180;7888;46.748;8.102;2023-12-28T10:50:43;94392.00;;;9.90
15575;BMP180;7888;46.748;8.102;2023-12-28T10:53:38;94379.00;;;9.90
15575;BMP180;7888;46.748;8.102;2023-12-28T10:56:35;94371.00;;;9.90
15575;BMP180;7888;46.748;8.102;2023-12-28T10:59:17;94379.00;;;10.00
15575;BMP180;7888;46.748;8.102;2023-12-28T11:01:51;94378.00;;;10.00
15575;BMP180;7888;46.748;8.102;2023-12-28T11:04:34;94376.00;;;10.10
15575;BMP180;7888;46.748;8.102;2023-12-28T11:07:05;94385.00;;;10.20
15575;BMP180;7888;46.748;8.102;2023-12-28T11:09:32;94382.00;;;10.20
15575;BMP180;7888;46.748;8.102;2023-12-28T11:12:00;94373.00;;;10.30
15575;BMP180;7888;46.748;8.102;2023-12-28T11:14:30;94369.00;;;10.40
15575;BMP180;7888;46.748;8.102;2023-12-28T11:16:59;94379.00;;;10.40
15575;BMP180;7888;46.748;8.102;2023-12-28T11:19:29;94373.00;;;10.50
15575;BMP180;7888;46.748;8.102;2023-12-28T11:21:56;94375.00;;;10.50
15575;BMP180;7888;46.748;8.102;2023-12-28T11:24:29;94378.00;;;10.60
15575;BMP180;7888;46.748;8.102;2023-12-28T11:26:56;94378.00;;;10.60
15575;BMP180;7888;46.748;8.102;2023-12-28T11:29:23;94367.00;;;10.70
15575;BMP180;7888;46.748;8.102;2023-12-28T11:31:54;94359.00;;;10.70
15575;BMP180;7888;46.748;8.102;2023-12-28T11:34:31;94367.00;;;10.70
15575;BMP180;7888;46.748;8.102;2023-12-28T11:37:04;94359.00;;;10.70
15575;BMP180;7888;46.748;8.102;2023-12-28T11:39:36;94356.00;;;10.70
15575;BMP180;7888;46.748;8.102;2023-12-28T11:42:09;94327.00;;;10.80
15575;BMP180;7888;46.748;8.102;2023-12-28T11:44:40;94348.00;;;10.80
15575;BMP180;7888;46.748;8.102;2023-12-28T11:47:25;94349.00;;;10.80
15575;BMP180;7888;46.748;8.102;2023-12-28T11:49:51;94371.00;;;10.90
15575;BMP180;7888;46.748;8.102;2023-12-28T11:52:29;94365.00;;;10.90
15575;BMP180;7888;46.748;8.102;2023-12-28T11:54:57;94361.00;;;10.90
15575;BMP180;7888;46.748;8.102;2023-12-28T11:57:23;94373.00;;;11.00
15575;BMP180;7888;46.748;8.102;2023-12-28T12:00:00;94369.00;;;11.00
15575;BMP180;7888;46.748;8.102;2023-12-28T12:02:27;94372.00;;;11.00
15575;BMP180;7888;46.748;8.102;2023-12-28T12:04:54;94385.00;;;11.10
15575;BMP180;7888;46.748;8.102;2023-12-28T12:07:20;94396.00;;;11.10
15575;BMP180;7888;46.748;8.102;2023-12-28T12:09:46;94396.00;;;11.10
15575;BMP180;7888;46.748;8.102;2023-12-28T12:12:12;94375.00;;;11.10
15575;BMP180;7888;46.748;8.102;2023-12-28T12:14:38;94389.00;;;11.10
15575;BMP180;7888;46.748;8.102;2023-12-28T12:17:04;94399.00;;;11.10
15575;BMP180;7888;46.748;8.102;2023-12-28T12:19:30;94383.00;;;11.10
15575;BMP180;7888;46.748;8.102;2023-12-28T12:21:56;94411.00;;;11.10
15575;BMP180;7888;46.748;8.102;2023-12-28T12:24:23;94396.00;;;11.10
15575;BMP180;7888;46.748;8.102;2023-12-28T12:26:50;94409.00;;;11.10
15575;BMP180;7888;46.748;8.102;2023-12-28T12:29:16;94385.00;;;11.20
15575;BMP180;7888;46.748;8.102;2023-12-28T12:31:44;94401.00;;;11.20
15575;BMP180;7888;46.748;8.102;2023-12-28T12:34:15;94410.00;;;11.20
15575;BMP180;7888;46.748;8.102;2023-12-28T12:36:41;94405.00;;;11.20
15575;BMP180;7888;46.748;8.102;2023-12-28T12:39:10;94412.00;;;11.20
15575;BMP180;7888;46.748;8.102;2023-12-28T12:41:37;94421.00;;;11.30
15575;BMP180;7888;46.748;8.102;2023-12-28T12:44:04;94419.00;;;11.30
15575;BMP180;7888;46.748;8.102;2023-12-28T12:46:31;94423.00;;;11.30
15575;BMP180;7888;46.748;8.102;2023-12-28T12:48:58;94422.00;;;11.30
15575;BMP180;7888;46.748;8.102;2023-12-28T12:51:26;94421.00;;;11.30
15575;BMP180;7888;46.748;8.102;2023-12-28T12:54:03;94414.00;;;11.30
15575;BMP180;7888;46.748;8.102;2023-12-28T12:56:30;94410.00;;;11.40
15575;BMP180;7888;46.748;8.102;2023-12-28T12:58:57;94407.00;;;11.40
15575;BMP180;7888;46.748;8.102;2023-12-28T13:01:24;94435.00;;;11.50
15575;BMP180;7888;46.748;8.102;2023-12-28T13:03:52;94443.00;;;11.50
15575;BMP180;7888;46.748;8.102;2023-12-28T13:06:19;94458.00;;;11.50
15575;BMP180;7888;46.748;8.102;2023-12-28T13:08:48;94447.00;;;11.50
15575;BMP180;7888;46.748;8.102;2023-12-28T13:11:14;94456.00;;;11.50
15575;BMP180;7888;46.748;8.102;2023-12-28T13:13:41;94445.00;;;11.50
15575;BMP180;7888;46.748;8.102;2023-12-28T13:16:06;94435.00;;;11.50
15575;BMP180;7888;46.748;8.102;2023-12-28T13:18:32;94440.00;;;11.60
15575;BMP180;7888;46.748;8.102;2023-12-28T13:21:01;94423.00;;;11.60
15575;BMP180;7888;46.748;8.102;2023-12-28T13:23:27;94435.00;;;11.60
15575;BMP180;7888;46.748;8.102;2023-12-28T13:25:54;94449.00;;;11.60
15575;BMP180;7888;46.748;8.102;2023-12-28T13:28:20;94449.00;;;11.60
15575;BMP180;7888;46.748;8.102;2023-12-28T13:30:46;94427.00;;;11.60
15575;BMP180;7888;46.748;8.102;2023-12-28T13:33:12;94451.00;;;11.60
15575;BMP180;7888;46.748;8.102;2023-12-28T13:35:37;94444.00;;;11.50
15575;BMP180;7888;46.748;8.102;2023-12-28T13:38:03;94439.00;;;11.40
15575;BMP180;7888;46.748;8.102;2023-12-28T13:40:29;94460.00;;;11.30
15575;BMP180;7888;46.748;8.102;2023-12-28T13:42:56;94453.00;;;11.30
15575;BMP180;7888;46.748;8.102;2023-12-28T13:45:29;94451.00;;;11.30
15575;BMP180;7888;46.748;8.102;2023-12-28T13:47:54;94453.00;;;11.20
15575;BMP180;7888;46.748;8.102;2023-12-28T13:50:20;94457.00;;;11.20
15575;BMP180;7888;46.748;8.102;2023-12-28T13:52:46;94443.00;;;11.10
15575;BMP180;7888;46.748;8.102;2023-12-28T13:55:12;94452.00;;;11.10
15575;BMP180;7888;46.748;8.102;2023-12-28T13:57:38;94453.00;;;11.10
15575;BMP180;7888;46.748;8.102;2023-12-28T14:00:05;94440.00;;;11.10
15575;BMP180;7888;46.748;8.102;2023-12-28T14:02:31;94440.00;;;11.10
15575;BMP180;7888;46.748;8.102;2023-12-28T14:04:57;94416.00;;;11.10
15575;BMP180;7888;46.748;8.102;2023-12-28T14:07:23;94429.00;;;11.10
15575;BMP180;7888;46.748;8.102;2023-12-28T14:09:50;94433.00;;;11.20
15575;BMP180;7888;46.748;8.102;2023-12-28T14:12:16;94414.00;;;11.20
15575;BMP180;7888;46.748;8.102;2023-12-28T14:14:42;94435.00;;;11.30
15575;BMP180;7888;46.748;8.102;2023-12-28T14:17:08;94419.00;;;11.30
15575;BMP180;7888;46.748;8.102;2023-12-28T14:19:33;94422.00;;;11.30
15575;BMP180;7888;46.748;8.102;2023-12-28T14:22:00;94432.00;;;11.30
15575;BMP180;7888;46.748;8.102;2023-12-28T14:24:26;94403.00;;;11.40
15575;BMP180;7888;46.748;8.102;2023-12-28T14:26:54;94414.00;;;11.40
15575;BMP180;7888;46.748;8.102;2023-12-28T14:29:21;94399.00;;;11.40
15575;BMP180;7888;46.748;8.102;2023-12-28T14:31:48;94409.00;;;11.40
15575;BMP180;7888;46.748;8.102;2023-12-28T14:34:14;94417.00;;;11.40
15575;BMP180;7888;46.748;8.102;2023-12-28T14:36:40;94418.00;;;11.50
15575;BMP180;7888;46.748;8.102;2023-12-28T14:39:08;94421.00;;;11.50
15575;BMP180;7888;46.748;8.102;2023-12-28T14:41:35;94409.00;;;11.50
15575;BMP180;7888;46.748;8.102;2023-12-28T14:44:01;94412.00;;;11.50
15575;BMP180;7888;46.748;8.102;2023-12-28T14:46:27;94426.00;;;11.50
15575;BMP180;7888;46.748;8.102;2023-12-28T14:48:53;94411.00;;;11.50
15575;BMP180;7888;46.748;8.102;2023-12-28T14:51:19;94417.00;;;11.50
15575;BMP180;7888;46.748;8.102;2023-12-28T14:53:45;94414.00;;;11.50
15575;BMP180;7888;46.748;8.102;2023-12-28T14:56:11;94407.00;;;11.40
15575;BMP180;7888;46.748;8.102;2023-12-28T14:58:38;94405.00;;;11.40
15575;BMP180;7888;46.748;8.102;2023-12-28T15:01:06;94379.00;;;11.40
15575;BMP180;7888;46.748;8.102;2023-12-28T15:03:32;94376.00;;;11.40
15575;BMP180;7888;46.748;8.102;2023-12-28T15:05:57;94404.00;;;11.40
15575;BMP180;7888;46.748;8.102;2023-12-28T15:08:24;94403.00;;;11.40
15575;BMP180;7888;46.748;8.102;2023-12-28T15:10:51;94400.00;;;11.40
15575;BMP180;7888;46.748;8.102;2023-12-28T15:13:17;94400.00;;;11.30
15575;BMP180;7888;46.748;8.102;2023-12-28T15:15:44;94388.00;;;11.30
15575;BMP180;7888;46.748;8.102;2023-12-28T15:18:10;94415.00;;;11.20
15575;BMP180;7888;46.748;8.102;2023-12-28T15:20:36;94397.00;;;11.20
15575;BMP180;7888;46.748;8.102;2023-12-28T15:23:03;94385.00;;;11.20
15575;BMP180;7888;46.748;8.102;2023-12-28T15:25:28;94394.00;;;11.20
15575;BMP180;7888;46.748;8.102;2023-12-28T15:27:54;94392.00;;;11.20
15575;BMP180;7888;46.748;8.102;2023-12-28T15:30:21;94404.00;;;11.10
15575;BMP180;7888;46.748;8.102;2023-12-28T15:32:46;94404.00;;;11.10
15575;BMP180;7888;46.748;8.102;2023-12-28T15:35:13;94407.00;;;11.10
15575;BMP180;7888;46.748;8.102;2023-12-28T15:37:42;94391.00;;;11.10
15575;BMP180;7888;46.748;8.102;2023-12-28T15:40:08;94410.00;;;11.00
15575;BMP180;7888;46.748;8.102;2023-12-28T15:42:34;94393.00;;;11.00
15575;BMP180;7888;46.748;8.102;2023-12-28T15:45:02;94409.00;;;11.00
15575;BMP180;7888;46.748;8.102;2023-12-28T15:47:28;94383.00;;;11.00
15575;BMP180;7888;46.748;8.102;2023-12-28T15:49:54;94391.00;;;11.00
15575;BMP180;7888;46.748;8.102;2023-12-28T15:52:20;94393.00;;;10.90
15575;BMP180;7888;46.748;8.102;2023-12-28T15:54:46;94389.00;;;10.90
15575;BMP180;7888;46.748;8.102;2023-12-28T15:57:12;94357.00;;;10.90
15575;BMP180;7888;46.748;8.102;2023-12-28T15:59:37;94384.00;;;10.80
15575;BMP180;7888;46.748;8.102;2023-12-28T16:02:03;94368.00;;;10.80
15575;BMP180;7888;46.748;8.102;2023-12-28T16:04:29;94396.00;;;10.80
15575;BMP180;7888;46.748;8.102;2023-12-28T16:06:55;94387.00;;;10.80
15575;BMP180;7888;46.748;8.102;2023-12-28T16:09:21;94392.00;;;10.80
15575;BMP180;7888;46.748;8.102;2023-12-28T16:11:47;94396.00;;;10.80
15575;BMP180;7888;46.748;8.102;2023-12-28T16:14:13;94397.00;;;10.80
15575;BMP180;7888;46.748;8.102;2023-12-28T16:16:39;94393.00;;;10.80
15575;BMP180;7888;46.748;8.102;2023-12-28T16:19:05;94404.00;;;10.80
15575;BMP180;7888;46.748;8.102;2023-12-28T16:21:32;94403.00;;;10.80
15575;BMP180;7888;46.748;8.102;2023-12-28T16:23:58;94381.00;;;10.80
15575;BMP180;7888;46.748;8.102;2023-12-28T16:26:24;94426.00;;;10.80
15575;BMP180;7888;46.748;8.102;2023-12-28T16:28:51;94401.00;;;10.70
15575;BMP180;7888;46.748;8.102;2023-12-28T16:31:20;94391.00;;;10.70
15575;BMP180;7888;46.748;8.102;2023-12-28T16:33:46;94407.00;;;10.70
15575;BMP180;7888;46.748;8.102;2023-12-28T16:36:11;94400.00;;;10.70
15575;BMP180;7888;46.748;8.102;2023-12-28T16:38:37;94400.00;;;10.70
15575;BMP180;7888;46.748;8.102;2023-12-28T16:41:03;94404.00;;;10.70
15575;BMP180;7888;46.748;8.102;2023-12-28T16:43:32;94409.00;;;10.60
15575;BMP180;7888;46.748;8.102;2023-12-28T16:46:00;94411.00;;;10.60
15575;BMP180;7888;46.748;8.102;2023-12-28T16:48:26;94396.00;;;10.60
15575;BMP180;7888;46.748;8.102;2023-12-28T16:50:52;94389.00;;;10.60
15575;BMP180;7888;46.748;8.102;2023-12-28T16:53:20;94383.00;;;10.60
15575;BMP180;7888;46.748;8.102;2023-12-28T16:55:45;94398.00;;;10.60
15575;BMP180;7888;46.748;8.102;2023-12-28T16:58:11;94372.00;;;10.60
15575;BMP180;7888;46.748;8.102;2023-12-28T17:00:37;94377.00;;;10.60
15575;BMP180;7888;46.748;8.102;2023-12-28T17:03:04;94354.00;;;10.60
15575;BMP180;7888;46.748;8.102;2023-12-28T17:05:30;94367.00;;;10.50
15575;BMP180;7888;46.748;8.102;2023-12-28T17:07:56;94347.00;;;10.50
15575;BMP180;7888;46.748;8.102;2023-12-28T17:10:22;94358.00;;;10.50
15575;BMP180;7888;46.748;8.102;2023-12-28T17:12:49;94340.00;;;10.50
15575;BMP180;7888;46.748;8.102;2023-12-28T17:15:15;94342.00;;;10.50
15575;BMP180;7888;46.748;8.102;2023-12-28T17:17:42;94359.00;;;10.50
15575;BMP180;7888;46.748;8.102;2023-12-28T17:20:09;94384.00;;;10.50
15575;BMP180;7888;46.748;8.102;2023-12-28T17:22:50;94393.00;;;10.50
15575;BMP180;7888;46.748;8.102;2023-12-28T17:25:29;94405.00;;;10.50
15575;BMP180;7888;46.748;8.102;2023-12-28T17:28:03;94388.00;;;10.40
15575;BMP180;7888;46.748;8.102;2023-12-28T17:30:31;94397.00;;;10.40
15575;BMP180;7888;46.748;8.102;2023-12-28T17:33:02;94380.00;;;10.40
15575;BMP180;7888;46.748;8.102;2023-12-28T17:35:29;94359.00;;;10.40
15575;BMP180;7888;46.748;8.102;2023-12-28T17:37:55;94362.00;;;10.40
15575;BMP180;7888;46.748;8.102;2023-12-28T17:40:22;94352.00;;;10.30
15575;BMP180;7888;46.748;8.102;2023-12-28T17:42:58;94375.00;;;10.30
15575;BMP180;7888;46.748;8.102;2023-12-28T17:45:56;94363.00;;;10.30
15575;BMP180;7888;46.748;8.102;2023-12-28T17:48:31;94354.00;;;10.30
15575;BMP180;7888;46.748;8.102;2023-12-28T17:51:00;94323.00;;;10.30
15575;BMP180;7888;46.748;8.102;2023-12-28T17:53:27;94342.00;;;10.40
15575;BMP180;7888;46.748;8.102;2023-12-28T17:55:53;94333.00;;;10.40
15575;BMP180;7888;46.748;8.102;2023-12-28T17:58:18;94342.00;;;10.40
15575;BMP180;7888;46.748;8.102;2023-12-28T18:00:44;94357.00;;;10.40
15575;BMP180;7888;46.748;8.102;2023-12-28T18:03:10;94331.00;;;10.50
15575;BMP180;7888;46.748;8.102;2023-12-28T18:05:36;94344.00;;;10.50
15575;BMP180;7888;46.748;8.102;2023-12-28T18:08:01;94341.00;;;10.50
15575;BMP180;7888;46.748;8.102;2023-12-28T18:10:27;94348.00;;;10.50
15575;BMP180;7888;46.748;8.102;2023-12-28T18:12:53;94353.00;;;10.50
15575;BMP180;7888;46.748;8.102;2023-12-28T18:15:19;94333.00;;;10.50
15575;BMP180;7888;46.748;8.102;2023-12-28T18:17:45;94339.00;;;10.50
15575;BMP180;7888;46.748;8.102;2023-12-28T18:20:11;94340.00;;;10.50
15575;BMP180;7888;46.748;8.102;2023-12-28T18:22:37;94340.00;;;10.50
15575;BMP180;7888;46.748;8.102;2023-12-28T18:25:05;94322.00;;;10.50
15575;BMP180;7888;46.748;8.102;2023-12-28T18:27:30;94302.00;;;10.50
15575;BMP180;7888;46.748;8.102;2023-12-28T18:29:56;94316.00;;;10.50
15575;BMP180;7888;46.748;8.102;2023-12-28T18:32:22;94314.00;;;10.50
15575;BMP180;7888;46.748;8.102;2023-12-28T18:34:48;94302.00;;;10.50
15575;BMP180;7888;46.748;8.102;2023-12-28T18:37:17;94293.00;;;10.50
15575;BMP180;7888;46.748;8.102;2023-12-28T18:39:43;94238.00;;;10.50
15575;BMP180;7888;46.748;8.102;2023-12-28T18:42:09;94275.00;;;10.50
15575;BMP180;7888;46.748;8.102;2023-12-28T18:44:35;94287.00;;;10.50
15575;BMP180;7888;46.748;8.102;2023-12-28T18:47:03;94272.00;;;10.40
15575;BMP180;7888;46.748;8.102;2023-12-28T18:49:31;94248.00;;;10.30
15575;BMP180;7888;46.748;8.102;2023-12-28T18:51:57;94244.00;;;10.30
15575;BMP180;7888;46.748;8.102;2023-12-28T18:54:23;94268.00;;;10.20
15575;BMP180;7888;46.748;8.102;2023-12-28T18:56:48;94276.00;;;10.20
15575;BMP180;7888;46.748;8.102;2023-12-28T18:59:15;94272.00;;;10.20
15575;BMP180;7888;46.748;8.102;2023-12-28T19:01:41;94271.00;;;10.20
15575;BMP180;7888;46.748;8.102;2023-12-28T19:04:07;94278.00;;;10.20
15575;BMP180;7888;46.748;8.102;2023-12-28T19:06:32;94278.00;;;10.20
15575;BMP180;7888;46.748;8.102;2023-12-28T19:08:58;94297.00;;;10.20
15575;BMP180;7888;46.748;8.102;2023-12-28T19:11:25;94286.00;;;10.30
15575;BMP180;7888;46.748;8.102;2023-12-28T19:13:51;94309.00;;;10.30
15575;BMP180;7888;46.748;8.102;2023-12-28T19:16:22;94331.00;;;10.20
15575;BMP180;7888;46.748;8.102;2023-12-28T19:18:49;94342.00;;;10.30
15575;BMP180;7888;46.748;8.102;2023-12-28T19:21:17;94323.00;;;10.20
15575;BMP180;7888;46.748;8.102;2023-12-28T19:23:42;94345.00;;;10.20
15575;BMP180;7888;46.748;8.102;2023-12-28T19:26:08;94367.00;;;10.20
15575;BMP180;7888;46.748;8.102;2023-12-28T19:28:34;94377.00;;;10.20
15575;BMP180;7888;46.748;8.102;2023-12-28T19:30:59;94379.00;;;10.20
15575;BMP180;7888;46.748;8.102;2023-12-28T19:33:25;94366.00;;;10.10
15575;BMP180;7888;46.748;8.102;2023-12-28T19:35:51;94385.00;;;10.10
15575;BMP180;7888;46.748;8.102;2023-12-28T19:38:17;94384.00;;;10.10
15575;BMP180;7888;46.748;8.102;2023-12-28T19:40:42;94373.00;;;10.10
15575;BMP180;7888;46.748;8.102;2023-12-28T19:43:08;94393.00;;;10.10
15575;BMP180;7888;46.748;8.102;2023-12-28T19:45:34;94391.00;;;10.00
15575;BMP180;7888;46.748;8.102;2023-12-28T19:47:59;94409.00;;;10.20
15575;BMP180;7888;46.748;8.102;2023-12-28T19:50:26;94398.00;;;10.10
15575;BMP180;7888;46.748;8.102;2023-12-28T19:52:52;94391.00;;;10.20
15575;BMP180;7888;46.748;8.102;2023-12-28T19:55:18;94403.00;;;10.20
15575;BMP180;7888;46.748;8.102;2023-12-28T19:57:44;94391.00;;;10.20
15575;BMP180;7888;46.748;8.102;2023-12-28T20:00:10;94386.00;;;10.20
15575;BMP180;7888;46.748;8.102;2023-12-28T20:02:41;94404.00;;;10.20
15575;BMP180;7888;46.748;8.102;2023-12-28T20:05:08;94409.00;;;10.20
15575;BMP180;7888;46.748;8.102;2023-12-28T20:07:35;94407.00;;;10.20
15575;BMP180;7888;46.748;8.102;2023-12-28T20:10:02;94406.00;;;10.30
15575;BMP180;7888;46.748;8.102;2023-12-28T20:12:28;94395.00;;;10.30
15575;BMP180;7888;46.748;8.102;2023-12-28T20:14:54;94386.00;;;10.30
15575;BMP180;7888;46.748;8.102;2023-12-28T20:17:20;94410.00;;;10.30
15575;BMP180;7888;46.748;8.102;2023-12-28T20:19:49;94404.00;;;10.30
15575;BMP180;7888;46.748;8.102;2023-12-28T20:22:14;94404.00;;;10.40
15575;BMP180;7888;46.748;8.102;2023-12-28T20:24:40;94393.00;;;10.40
15575;BMP180;7888;46.748;8.102;2023-12-28T20:27:06;94380.00;;;10.40
15575;BMP180;7888;46.748;8.102;2023-12-28T20:29:33;94394.00;;;10.40
15575;BMP180;7888;46.748;8.102;2023-12-28T20:32:00;94389.00;;;10.40
15575;BMP180;7888;46.748;8.102;2023-12-28T20:34:26;94416.00;;;10.50
15575;BMP180;7888;46.748;8.102;2023-12-28T20:36:51;94392.00;;;10.50
15575;BMP180;7888;46.748;8.102;2023-12-28T20:39:19;94414.00;;;10.50
15575;BMP180;7888;46.748;8.102;2023-12-28T20:41:48;94409.00;;;10.50
15575;BMP180;7888;46.748;8.102;2023-12-28T20:44:14;94390.00;;;10.50
15575;BMP180;7888;46.748;8.102;2023-12-28T20:46:39;94407.00;;;10.50
15575;BMP180;7888;46.748;8.102;2023-12-28T20:49:05;94402.00;;;10.50
15575;BMP180;7888;46.748;8.102;2023-12-28T20:51:31;94418.00;;;10.50
15575;BMP180;7888;46.748;8.102;2023-12-28T20:53:58;94434.00;;;10.50
15575;BMP180;7888;46.748;8.102;2023-12-28T20:56:23;94436.00;;;10.50
15575;BMP180;7888;46.748;8.102;2023-12-28T20:58:49;94427.00;;;10.50
15575;BMP180;7888;46.748;8.102;2023-12-28T21:01:16;94432.00;;;10.50
15575;BMP180;7888;46.748;8.102;2023-12-28T21:03:42;94427.00;;;10.50
15575;BMP180;7888;46.748;8.102;2023-12-28T21:06:08;94434.00;;;10.50
15575;BMP180;7888;46.748;8.102;2023-12-28T21:08:34;94435.00;;;10.50
15575;BMP180;7888;46.748;8.102;2023-12-28T21:10:59;94437.00;;;10.60
15575;BMP180;7888;46.748;8.102;2023-12-28T21:13:25;94447.00;;;10.60
15575;BMP180;7888;46.748;8.102;2023-12-28T21:15:54;94432.00;;;10.60
15575;BMP180;7888;46.748;8.102;2023-12-28T21:18:22;94460.00;;;10.60
15575;BMP180;7888;46.748;8.102;2023-12-28T21:20:48;94459.00;;;10.60
15575;BMP180;7888;46.748;8.102;2023-12-28T21:23:16;94460.00;;;10.60
15575;BMP180;7888;46.748;8.102;2023-12-28T21:25:42;94466.00;;;10.60
15575;BMP180;7888;46.748;8.102;2023-12-28T21:28:09;94469.00;;;10.60
15575;BMP180;7888;46.748;8.102;2023-12-28T21:30:35;94462.00;;;10.70
15575;BMP180;7888;46.748;8.102;2023-12-28T21:33:03;94459.00;;;10.70
15575;BMP180;7888;46.748;8.102;2023-12-28T21:35:28;94475.00;;;10.70
15575;BMP180;7888;46.748;8.102;2023-12-28T21:37:54;94478.00;;;10.70
15575;BMP180;7888;46.748;8.102;2023-12-28T21:40:20;94475.00;;;10.70
15575;BMP180;7888;46.748;8.102;2023-12-28T21:42:47;94469.00;;;10.70
15575;BMP180;7888;46.748;8.102;2023-12-28T21:45:13;94470.00;;;10.70
15575;BMP180;7888;46.748;8.102;2023-12-28T21:47:39;94469.00;;;10.70
15575;BMP180;7888;46.748;8.102;2023-12-28T21:50:06;94464.00;;;10.80
15575;BMP180;7888;46.748;8.102;2023-12-28T21:52:32;94481.00;;;10.80
15575;BMP180;7888;46.748;8.102;2023-12-28T21:54:58;94457.00;;;10.80
15575;BMP180;7888;46.748;8.102;2023-12-28T21:57:25;94476.00;;;10.80
15575;BMP180;7888;46.748;8.102;2023-12-28T21:59:52;94473.00;;;10.80
15575;BMP180;7888;46.748;8.102;2023-12-28T22:02:18;94458.00;;;10.80
15575;BMP180;7888;46.748;8.102;2023-12-28T22:04:44;94464.00;;;10.80
15575;BMP180;7888;46.748;8.102;2023-12-28T22:07:10;94465.00;;;10.80
15575;BMP180;7888;46.748;8.102;2023-12-28T22:09:36;94456.00;;;10.80
15575;BMP180;7888;46.748;8.102;2023-12-28T22:12:05;94476.00;;;10.80
15575;BMP180;7888;46.748;8.102;2023-12-28T22:14:31;94484.00;;;10.80
15575;BMP180;7888;46.748;8.102;2023-12-28T22:16:56;94486.00;;;10.80
15575;BMP180;7888;46.748;8.102;2023-12-28T22:19:23;94474.00;;;10.80
15575;BMP180;7888;46.748;8.102;2023-12-28T22:21:49;94476.00;;;10.70
15575;BMP180;7888;46.748;8.102;2023-12-28T22:24:14;94470.00;;;10.70
15575;BMP180;7888;46.748;8.102;2023-12-28T22:26:41;94451.00;;;10.70
15575;BMP180;7888;46.748;8.102;2023-12-28T22:29:08;94468.00;;;10.70
15575;BMP180;7888;46.748;8.102;2023-12-28T22:31:34;94484.00;;;10.70
15575;BMP180;7888;46.748;8.102;2023-12-28T22:34:00;94473.00;;;10.70
15575;BMP180;7888;46.748;8.102;2023-12-28T22:36:26;94478.00;;;10.70
15575;BMP180;7888;46.748;8.102;2023-12-28T22:38:51;94452.00;;;10.70
15575;BMP180;7888;46.748;8.102;2023-12-28T22:41:17;94477.00;;;10.70
15575;BMP180;7888;46.748;8.102;2023-12-28T22:43:44;94463.00;;;10.70
15575;BMP180;7888;46.748;8.102;2023-12-28T22:46:10;94475.00;;;10.70
15575;BMP180;7888;46.748;8.102;2023-12-28T22:48:39;94468.00;;;10.70
15575;BMP180;7888;46.748;8.102;2023-12-28T22:51:06;94466.00;;;10.70
15575;BMP180;7888;46.748;8.102;2023-12-28T22:53:33;94437.00;;;10.60
15575;BMP180;7888;46.748;8.102;2023-12-28T22:55:59;94450.00;;;10.60
15575;BMP180;7888;46.748;8.102;2023-12-28T22:58:25;94458.00;;;10.60
15575;BMP180;7888;46.748;8.102;2023-12-28T23:00:51;94445.00;;;10.60
15575;BMP180;7888;46.748;8.102;2023-12-28T23:03:18;94440.00;;;10.50